sensor_id;sensor_type;location;lat;lon;timestamp;pressure;altitude;pressure_sealevel;temperature;humidity
32933;BME280;19444;50.518;10.870;2023-08-30T00:01:04;95891.31;;;9.13;100.00
32933;BME280;19444;50.518;10.870;2023-08-30T00:04:02;95893.53;;;9.11;100.00
32933;BME280;19444;50.518;10.870;2023-08-30T00:06:59;95900.91;;;9.23;100.00
32933;BME280;19444;50.518;10.870;2023-08-30T00:09:58;95894.97;;;9.34;100.00
32933;BME280;19444;50.518;10.870;2023-08-30T00:12:55;95891.81;;;9.32;100.00
32933;BME280;19444;50.518;10.870;2023-08-30T00:15:52;95894.91;;;9.00;100.00
32933;BME280;19444;50.518;10.870;2023-08-30T00:18:49;95899.63;;;8.94;100.00
32933;BME280;19444;50.518;10.870;2023-08-30T00:21:46;95898.53;;;9.04;100.00
32933;BME280;19444;50.518;10.870;2023-08-30T00:24:43;95890.84;;;9.20;100.00
32933;BME280;19444;50.518;10.870;2023-08-30T00:27:40;95889.44;;;9.22;100.00
32933;BME280;19444;50.518;10.870;2023-08-30T00:30:37;95888.06;;;9.42;100.00
32933;BME280;19444;50.518;10.870;2023-08-30T00:33:34;95886.94;;;9.34;100.00
32933;BME280;19444;50.518;10.870;2023-08-30T00:36:31;95886.91;;;9.69;100.00
32933;BME280;19444;50.518;10.870;2023-08-30T00:39:28;95899.53;;;9.43;100.00
32933;BME280;19444;50.518;10.870;2023-08-30T00:42:25;95907.97;;;9.10;100.00
32933;BME280;19444;50.518;10.870;2023-08-30T00:45:22;95901.56;;;9.20;100.00
32933;BME280;19444;50.518;10.870;2023-08-30T00:48:20;95897.59;;;9.08;100.00
32933;BME280;19444;50.518;10.870;2023-08-30T00:51:17;95894.94;;;9.08;100.00
32933;BME280;19444;50.518;10.870;2023-08-30T00:54:14;95901.41;;;9.16;100.00
32933;BME280;19444;50.518;10.870;2023-08-30T00:57:12;95899.94;;;9.01;100.00
32933;BME280;19444;50.518;10.870;2023-08-30T01:00:10;95907.84;;;9.06;100.00
32933;BME280;19444;50.518;10.870;2023-08-30T01:03:07;95899.38;;;9.39;100.00
32933;BME280;19444;50.518;10.870;2023-08-30T01:06:04;95897.44;;;9.05;100.00
32933;BME280;19444;50.518;10.870;2023-08-30T01:09:03;95902.91;;;8.82;100.00
32933;BME280;19444;50.518;10.870;2023-08-30T01:12:10;95903.03;;;8.86;100.00
32933;BME280;19444;50.518;10.870;2023-08-30T01:18:09;95899.72;;;8.72;100.00
32933;BME280;19444;50.518;10.870;2023-08-30T01:21:20;95894.34;;;8.63;100.00
32933;BME280;19444;50.518;10.870;2023-08-30T01:28:14;95893.25;;;8.64;100.00
32933;BME280;19444;50.518;10.870;2023-08-30T01:31:13;95898.00;;;8.76;100.00
32933;BME280;19444;50.518;10.870;2023-08-30T01:34:10;95899.44;;;8.82;100.00
32933;BME280;19444;50.518;10.870;2023-08-30T01:37:08;95900.41;;;8.46;100.00
32933;BME280;19444;50.518;10.870;2023-08-30T01:40:07;95894.94;;;8.51;100.00
32933;BME280;19444;50.518;10.870;2023-08-30T01:43:06;95892.31;;;8.60;100.00
32933;BME280;19444;50.518;10.870;2023-08-30T01:46:04;95884.94;;;8.66;100.00
32933;BME280;19444;50.518;10.870;2023-08-30T01:49:03;95892.25;;;8.43;100.00
32933;BME280;19444;50.518;10.870;2023-08-30T01:52:01;95893.34;;;8.42;100.00
32933;BME280;19444;50.518;10.870;2023-08-30T01:54:59;95895.22;;;8.50;100.00
32933;BME280;19444;50.518;10.870;2023-08-30T01:57:57;95902.81;;;8.57;100.00
32933;BME280;19444;50.518;10.870;2023-08-30T02:00:53;95894.81;;;8.65;100.00
32933;BME280;19444;50.518;10.870;2023-08-30T02:03:51;95905.25;;;8.36;100.00
32933;BME280;19444;50.518;10.870;2023-08-30T02:07:08;95904.34;;;8.18;100.00
32933;BME280;19444;50.518;10.870;2023-08-30T02:10:12;95901.03;;;8.21;100.00
32933;BME280;19444;50.518;10.870;2023-08-30T02:13:12;95892.44;;;8.24;100.00
32933;BME280;19444;50.518;10.870;2023-08-30T02:16:11;95892.28;;;8.29;100.00
32933;BME280;19444;50.518;10.870;2023-08-30T02:19:08;95884.16;;;8.34;100.00
32933;BME280;19444;50.518;10.870;2023-08-30T02:22:06;95903.28;;;8.27;100.00
32933;BME280;19444;50.518;10.870;2023-08-30T02:25:03;95895.81;;;8.07;100.00
32933;BME280;19444;50.518;10.870;2023-08-30T02:28:03;95900.47;;;8.02;100.00
32933;BME280;19444;50.518;10.870;2023-08-30T02:31:00;95908.94;;;8.04;100.00
32933;BME280;19444;50.518;10.870;2023-08-30T02:33:57;95892.72;;;7.91;100.00
32933;BME280;19444;50.518;10.870;2023-08-30T02:36:54;95889.91;;;8.19;100.00
32933;BME280;19444;50.518;10.870;2023-08-30T02:39:51;95885.19;;;8.16;100.00
32933;BME280;19444;50.518;10.870;2023-08-30T02:42:48;95881.84;;;8.10;100.00
32933;BME280;19444;50.518;10.870;2023-08-30T02:45:45;95878.47;;;8.27;100.00
32933;BME280;19444;50.518;10.870;2023-08-30T02:48:42;95874.66;;;8.19;100.00
32933;BME280;19444;50.518;10.870;2023-08-30T02:51:39;95875.03;;;8.26;100.00
32933;BME280;19444;50.518;10.870;2023-08-30T02:54:36;95881.44;;;7.94;100.00
32933;BME280;19444;50.518;10.870;2023-08-30T02:57:32;95884.66;;;7.83;100.00
32933;BME280;19444;50.518;10.870;2023-08-30T03:00:29;95881.56;;;7.89;100.00
32933;BME280;19444;50.518;10.870;2023-08-30T03:03:26;95883.50;;;7.75;100.00
32933;BME280;19444;50.518;10.870;2023-08-30T03:06:23;95880.72;;;7.58;100.00
32933;BME280;19444;50.518;10.870;2023-08-30T03:09:20;95879.16;;;7.57;100.00
32933;BME280;19444;50.518;10.870;2023-08-30T03:12:17;95882.88;;;7.69;100.00
32933;BME280;19444;50.518;10.870;2023-08-30T03:15:14;95872.31;;;7.87;100.00
32933;BME280;19444;50.518;10.870;2023-08-30T03:18:11;95862.44;;;7.87;100.00
32933;BME280;19444;50.518;10.870;2023-08-30T03:21:09;95853.47;;;8.14;100.00
32933;BME280;19444;50.518;10.870;2023-08-30T03:24:06;95854.72;;;7.86;100.00
32933;BME280;19444;50.518;10.870;2023-08-30T03:27:03;95857.38;;;7.86;100.00
32933;BME280;19444;50.518;10.870;2023-08-30T03:30:03;95867.47;;;7.66;100.00
32933;BME280;19444;50.518;10.870;2023-08-30T03:33:00;95866.41;;;7.76;100.00
32933;BME280;19444;50.518;10.870;2023-08-30T03:35:58;95863.13;;;8.02;100.00
32933;BME280;19444;50.518;10.870;2023-08-30T03:38:55;95861.81;;;7.90;100.00
32933;BME280;19444;50.518;10.870;2023-08-30T03:41:52;95865.75;;;7.93;100.00
32933;BME280;19444;50.518;10.870;2023-08-30T03:44:49;95869.72;;;8.04;100.00
32933;BME280;19444;50.518;10.870;2023-08-30T03:47:46;95870.38;;;7.79;100.00
32933;BME280;19444;50.518;10.870;2023-08-30T03:50:43;95869.34;;;7.66;100.00
32933;BME280;19444;50.518;10.870;2023-08-30T03:53:40;95872.19;;;7.69;100.00
32933;BME280;19444;50.518;10.870;2023-08-30T03:56:37;95867.22;;;7.54;100.00
32933;BME280;19444;50.518;10.870;2023-08-30T03:59:34;95873.53;;;7.36;100.00
32933;BME280;19444;50.518;10.870;2023-08-30T04:02:30;95892.63;;;7.52;100.00
32933;BME280;19444;50.518;10.870;2023-08-30T04:05:33;95879.72;;;7.45;100.00
32933;BME280;19444;50.518;10.870;2023-08-30T04:08:30;95888.44;;;7.59;100.00
32933;BME280;19444;50.518;10.870;2023-08-30T04:11:27;95882.44;;;7.54;100.00
32933;BME280;19444;50.518;10.870;2023-08-30T04:14:24;95875.94;;;7.24;100.00
32933;BME280;19444;50.518;10.870;2023-08-30T04:17:21;95886.16;;;7.30;100.00
32933;BME280;19444;50.518;10.870;2023-08-30T04:20:18;95893.03;;;7.45;100.00
32933;BME280;19444;50.518;10.870;2023-08-30T04:23:15;95885.66;;;7.42;100.00
32933;BME280;19444;50.518;10.870;2023-08-30T04:26:12;95874.38;;;7.09;100.00
32933;BME280;19444;50.518;10.870;2023-08-30T04:29:09;95879.31;;;7.16;100.00
32933;BME280;19444;50.518;10.870;2023-08-30T04:32:06;95880.09;;;7.16;100.00
32933;BME280;19444;50.518;10.870;2023-08-30T04:35:03;95882.16;;;7.19;100.00
32933;BME280;19444;50.518;10.870;2023-08-30T04:38:01;95879.47;;;7.33;100.00
32933;BME280;19444;50.518;10.870;2023-08-30T04:40:58;95882.19;;;7.41;100.00
32933;BME280;19444;50.518;10.870;2023-08-30T04:43:59;95878.16;;;7.08;100.00
32933;BME280;19444;50.518;10.870;2023-08-30T04:46:56;95873.00;;;7.11;100.00
32933;BME280;19444;50.518;10.870;2023-08-30T04:49:53;95880.34;;;7.28;100.00
32933;BME280;19444;50.518;10.870;2023-08-30T04:52:50;95868.94;;;7.50;100.00
32933;BME280;19444;50.518;10.870;2023-08-30T04:55:46;95867.66;;;7.70;100.00
32933;BME280;19444;50.518;10.870;2023-08-30T04:58:44;95873.25;;;7.60;100.00
32933;BME280;19444;50.518;10.870;2023-08-30T05:01:40;95874.03;;;7.60;100.00
32933;BME280;19444;50.518;10.870;2023-08-30T05:04:40;95867.34;;;7.49;100.00
32933;BME280;19444;50.518;10.870;2023-08-30T05:07:37;95856.59;;;7.40;100.00
32933;BME280;19444;50.518;10.870;2023-08-30T05:10:34;95866.19;;;7.41;100.00
32933;BME280;19444;50.518;10.870;2023-08-30T05:13:31;95869.41;;;7.52;100.00
32933;BME280;19444;50.518;10.870;2023-08-30T05:16:28;95865.00;;;8.01;100.00
32933;BME280;19444;50.518;10.870;2023-08-30T05:19:25;95864.47;;;7.90;100.00
32933;BME280;19444;50.518;10.870;2023-08-30T05:22:22;95857.50;;;7.58;100.00
32933;BME280;19444;50.518;10.870;2023-08-30T05:25:19;95854.66;;;7.77;100.00
32933;BME280;19444;50.518;10.870;2023-08-30T05:28:16;95847.47;;;8.09;100.00
32933;BME280;19444;50.518;10.870;2023-08-30T05:31:13;95851.84;;;8.36;100.00
32933;BME280;19444;50.518;10.870;2023-08-30T05:34:10;95846.91;;;8.60;100.00
32933;BME280;19444;50.518;10.870;2023-08-30T05:37:08;95842.88;;;8.80;100.00
32933;BME280;19444;50.518;10.870;2023-08-30T05:40:06;95846.38;;;8.49;100.00
32933;BME280;19444;50.518;10.870;2023-08-30T05:43:03;95853.06;;;8.87;100.00
32933;BME280;19444;50.518;10.870;2023-08-30T05:46:00;95844.47;;;9.07;100.00
32933;BME280;19444;50.518;10.870;2023-08-30T05:48:59;95853.28;;;9.07;100.00
32933;BME280;19444;50.518;10.870;2023-08-30T05:51:59;95852.66;;;9.19;100.00
32933;BME280;19444;50.518;10.870;2023-08-30T05:54:56;95849.00;;;9.50;100.00
32933;BME280;19444;50.518;10.870;2023-08-30T05:57:56;95847.75;;;9.64;100.00
32933;BME280;19444;50.518;10.870;2023-08-30T06:00:53;95852.47;;;9.67;100.00
32933;BME280;19444;50.518;10.870;2023-08-30T06:03:50;95851.34;;;9.77;100.00
32933;BME280;19444;50.518;10.870;2023-08-30T06:06:47;95855.44;;;9.83;100.00
32933;BME280;19444;50.518;10.870;2023-08-30T06:09:44;95842.81;;;9.92;100.00
32933;BME280;19444;50.518;10.870;2023-08-30T06:12:41;95850.72;;;9.89;100.00
32933;BME280;19444;50.518;10.870;2023-08-30T06:15:38;95850.53;;;9.94;100.00
32933;BME280;19444;50.518;10.870;2023-08-30T06:18:35;95850.66;;;10.06;100.00
32933;BME280;19444;50.518;10.870;2023-08-30T06:21:34;95851.56;;;10.19;100.00
32933;BME280;19444;50.518;10.870;2023-08-30T06:24:30;95841.28;;;10.38;100.00
32933;BME280;19444;50.518;10.870;2023-08-30T06:27:27;95837.97;;;10.33;100.00
32933;BME280;19444;50.518;10.870;2023-08-30T06:30:25;95839.63;;;10.54;100.00
32933;BME280;19444;50.518;10.870;2023-08-30T06:33:22;95826.88;;;10.51;100.00
32933;BME280;19444;50.518;10.870;2023-08-30T06:36:19;95835.47;;;10.66;100.00
32933;BME280;19444;50.518;10.870;2023-08-30T06:39:19;95840.16;;;10.69;100.00
32933;BME280;19444;50.518;10.870;2023-08-30T06:42:16;95838.03;;;10.62;100.00
32933;BME280;19444;50.518;10.870;2023-08-30T06:45:13;95831.34;;;10.68;100.00
32933;BME280;19444;50.518;10.870;2023-08-30T06:48:10;95831.97;;;10.74;100.00
32933;BME280;19444;50.518;10.870;2023-08-30T06:51:08;95840.91;;;10.78;100.00
32933;BME280;19444;50.518;10.870;2023-08-30T06:54:05;95839.91;;;10.91;100.00
32933;BME280;19444;50.518;10.870;2023-08-30T06:57:02;95835.06;;;11.05;100.00
32933;BME280;19444;50.518;10.870;2023-08-30T06:59:59;95830.47;;;11.06;100.00
32933;BME280;19444;50.518;10.870;2023-08-30T07:03:03;95838.22;;;11.07;100.00
32933;BME280;19444;50.518;10.870;2023-08-30T07:06:00;95829.13;;;11.21;100.00
32933;BME280;19444;50.518;10.870;2023-08-30T07:08:57;95820.47;;;11.36;100.00
32933;BME280;19444;50.518;10.870;2023-08-30T07:11:54;95823.44;;;11.43;100.00
32933;BME280;19444;50.518;10.870;2023-08-30T07:14:51;95825.22;;;11.51;100.00
32933;BME280;19444;50.518;10.870;2023-08-30T07:17:48;95821.22;;;11.57;100.00
32933;BME280;19444;50.518;10.870;2023-08-30T07:20:49;95818.22;;;11.59;100.00
32933;BME280;19444;50.518;10.870;2023-08-30T07:23:46;95814.81;;;11.71;100.00
32933;BME280;19444;50.518;10.870;2023-08-30T07:26:43;95813.91;;;11.79;100.00
32933;BME280;19444;50.518;10.870;2023-08-30T07:29:40;95815.88;;;11.90;100.00
32933;BME280;19444;50.518;10.870;2023-08-30T07:32:37;95815.56;;;12.04;100.00
32933;BME280;19444;50.518;10.870;2023-08-30T07:35:35;95825.66;;;12.07;100.00
32933;BME280;19444;50.518;10.870;2023-08-30T07:38:32;95820.44;;;12.35;100.00
32933;BME280;19444;50.518;10.870;2023-08-30T07:41:29;95819.09;;;12.53;100.00
32933;BME280;19444;50.518;10.870;2023-08-30T07:44:26;95807.31;;;12.58;100.00
32933;BME280;19444;50.518;10.870;2023-08-30T07:47:23;95814.59;;;12.70;100.00
32933;BME280;19444;50.518;10.870;2023-08-30T07:50:20;95804.16;;;12.93;100.00
32933;BME280;19444;50.518;10.870;2023-08-30T07:53:17;95795.31;;;12.92;100.00
32933;BME280;19444;50.518;10.870;2023-08-30T07:56:14;95798.88;;;13.49;100.00
32933;BME280;19444;50.518;10.870;2023-08-30T07:59:11;95794.66;;;13.63;100.00
32933;BME280;19444;50.518;10.870;2023-08-30T08:02:08;95798.03;;;13.60;100.00
32933;BME280;19444;50.518;10.870;2023-08-30T08:05:05;95792.72;;;13.92;100.00
32933;BME280;19444;50.518;10.870;2023-08-30T08:08:02;95787.69;;;14.38;100.00
32933;BME280;19444;50.518;10.870;2023-08-30T08:11:00;95796.97;;;14.24;100.00
32933;BME280;19444;50.518;10.870;2023-08-30T08:13:57;95789.75;;;15.11;100.00
32933;BME280;19444;50.518;10.870;2023-08-30T08:16:54;95789.47;;;14.81;100.00
32933;BME280;19444;50.518;10.870;2023-08-30T08:19:51;95786.19;;;14.72;100.00
32933;BME280;19444;50.518;10.870;2023-08-30T08:22:48;95788.06;;;14.87;100.00
32933;BME280;19444;50.518;10.870;2023-08-30T08:25:45;95787.06;;;14.60;100.00
32933;BME280;19444;50.518;10.870;2023-08-30T08:28:42;95792.28;;;14.53;100.00
32933;BME280;19444;50.518;10.870;2023-08-30T08:31:39;95784.72;;;14.74;100.00
32933;BME280;19444;50.518;10.870;2023-08-30T08:34:36;95796.88;;;15.39;100.00
32933;BME280;19444;50.518;10.870;2023-08-30T08:37:33;95806.44;;;15.17;100.00
32933;BME280;19444;50.518;10.870;2023-08-30T08:40:30;95803.81;;;15.40;100.00
32933;BME280;19444;50.518;10.870;2023-08-30T08:43:39;95797.69;;;15.81;100.00
32933;BME280;19444;50.518;10.870;2023-08-30T08:46:40;95803.50;;;16.03;100.00
32933;BME280;19444;50.518;10.870;2023-08-30T08:49:38;95807.94;;;15.33;100.00
32933;BME280;19444;50.518;10.870;2023-08-30T08:52:36;95800.75;;;15.02;100.00
32933;BME280;19444;50.518;10.870;2023-08-30T08:55:53;95800.97;;;15.32;100.00
32933;BME280;19444;50.518;10.870;2023-08-30T08:58:52;95800.50;;;14.92;100.00
32933;BME280;19444;50.518;10.870;2023-08-30T09:01:50;95802.13;;;14.96;100.00
32933;BME280;19444;50.518;10.870;2023-08-30T09:04:47;95803.59;;;14.74;100.00
32933;BME280;19444;50.518;10.870;2023-08-30T09:07:45;95806.81;;;14.64;100.00
32933;BME280;19444;50.518;10.870;2023-08-30T09:10:42;95803.34;;;14.99;100.00
32933;BME280;19444;50.518;10.870;2023-08-30T09:13:39;95801.59;;;15.06;100.00
32933;BME280;19444;50.518;10.870;2023-08-30T09:16:36;95803.31;;;15.15;100.00
32933;BME280;19444;50.518;10.870;2023-08-30T09:19:33;95802.53;;;15.91;100.00
32933;BME280;19444;50.518;10.870;2023-08-30T09:22:41;95797.09;;;16.11;100.00
32933;BME280;19444;50.518;10.870;2023-08-30T09:25:38;95797.16;;;16.37;100.00
32933;BME280;19444;50.518;10.870;2023-08-30T09:28:42;95789.50;;;15.97;100.00
32933;BME280;19444;50.518;10.870;2023-08-30T09:31:40;95792.41;;;16.31;100.00
32933;BME280;19444;50.518;10.870;2023-08-30T09:34:46;95790.34;;;16.24;100.00
32933;BME280;19444;50.518;10.870;2023-08-30T09:37:45;95791.63;;;15.65;100.00
32933;BME280;19444;50.518;10.870;2023-08-30T09:40:42;95799.63;;;15.42;100.00
32933;BME280;19444;50.518;10.870;2023-08-30T09:43:42;95793.75;;;15.56;100.00
32933;BME280;19444;50.518;10.870;2023-08-30T09:46:46;95792.25;;;14.85;100.00
32933;BME280;19444;50.518;10.870;2023-08-30T09:49:46;95798.25;;;16.82;100.00
32933;BME280;19444;50.518;10.870;2023-08-30T09:52:43;95790.38;;;17.00;100.00
32933;BME280;19444;50.518;10.870;2023-08-30T09:55:41;95796.78;;;15.93;100.00
32933;BME280;19444;50.518;10.870;2023-08-30T09:58:39;95797.56;;;16.16;100.00
32933;BME280;19444;50.518;10.870;2023-08-30T10:01:40;95796.06;;;15.57;100.00
32933;BME280;19444;50.518;10.870;2023-08-30T10:04:38;95805.19;;;16.11;100.00
32933;BME280;19444;50.518;10.870;2023-08-30T10:07:41;95807.44;;;15.86;100.00
32933;BME280;19444;50.518;10.870;2023-08-30T10:10:40;95800.69;;;15.96;100.00
32933;BME280;19444;50.518;10.870;2023-08-30T10:13:39;95798.25;;;16.59;100.00
32933;BME280;19444;50.518;10.870;2023-08-30T10:16:49;95810.97;;;15.67;100.00
32933;BME280;19444;50.518;10.870;2023-08-30T10:19:49;95802.25;;;15.39;100.00
32933;BME280;19444;50.518;10.870;2023-08-30T10:22:47;95801.69;;;15.49;100.00
32933;BME280;19444;50.518;10.870;2023-08-30T10:25:46;95802.91;;;15.51;100.00
32933;BME280;19444;50.518;10.870;2023-08-30T10:28:48;95798.22;;;16.33;100.00
32933;BME280;19444;50.518;10.870;2023-08-30T10:31:45;95790.41;;;16.05;100.00
32933;BME280;19444;50.518;10.870;2023-08-30T10:34:49;95800.53;;;15.88;100.00
32933;BME280;19444;50.518;10.870;2023-08-30T10:37:57;95800.16;;;16.55;100.00
32933;BME280;19444;50.518;10.870;2023-08-30T10:41:05;95804.78;;;15.67;100.00
32933;BME280;19444;50.518;10.870;2023-08-30T10:44:02;95810.91;;;15.09;100.00
32933;BME280;19444;50.518;10.870;2023-08-30T10:47:02;95801.97;;;15.44;100.00
32933;BME280;19444;50.518;10.870;2023-08-30T10:50:05;95795.16;;;16.11;100.00
32933;BME280;19444;50.518;10.870;2023-08-30T10:53:13;95802.91;;;16.59;100.00
32933;BME280;19444;50.518;10.870;2023-08-30T10:56:11;95796.44;;;15.75;100.00
32933;BME280;19444;50.518;10.870;2023-08-30T10:59:18;95806.63;;;16.05;100.00
32933;BME280;19444;50.518;10.870;2023-08-30T11:02:16;95802.47;;;15.88;100.00
32933;BME280;19444;50.518;10.870;2023-08-30T11:05:15;95790.81;;;15.84;100.00
32933;BME280;19444;50.518;10.870;2023-08-30T11:08:14;95793.59;;;15.49;100.00
32933;BME280;19444;50.518;10.870;2023-08-30T11:11:11;95788.69;;;15.35;100.00
32933;BME280;19444;50.518;10.870;2023-08-30T11:14:10;95791.91;;;16.02;100.00
32933;BME280;19444;50.518;10.870;2023-08-30T11:17:10;95780.97;;;16.18;100.00
32933;BME280;19444;50.518;10.870;2023-08-30T11:20:11;95780.41;;;16.28;100.00
32933;BME280;19444;50.518;10.870;2023-08-30T11:23:09;95773.47;;;15.85;100.00
32933;BME280;19444;50.518;10.870;2023-08-30T11:26:07;95771.84;;;15.61;100.00
32933;BME280;19444;50.518;10.870;2023-08-30T11:29:08;95764.94;;;16.06;100.00
32933;BME280;19444;50.518;10.870;2023-08-30T11:32:07;95768.75;;;16.73;100.00
32933;BME280;19444;50.518;10.870;2023-08-30T11:35:05;95756.31;;;17.59;100.00
32933;BME280;19444;50.518;10.870;2023-08-30T11:38:03;95759.06;;;16.72;100.00
32933;BME280;19444;50.518;10.870;2023-08-30T11:41:00;95749.19;;;17.14;100.00
32933;BME280;19444;50.518;10.870;2023-08-30T11:43:58;95740.25;;;17.77;100.00
32933;BME280;19444;50.518;10.870;2023-08-30T11:46:59;95743.09;;;17.91;100.00
32933;BME280;19444;50.518;10.870;2023-08-30T11:49:57;95736.22;;;18.48;100.00
32933;BME280;19444;50.518;10.870;2023-08-30T11:52:56;95742.88;;;17.70;100.00
32933;BME280;19444;50.518;10.870;2023-08-30T11:55:53;95737.28;;;18.33;100.00
32933;BME280;19444;50.518;10.870;2023-08-30T11:58:50;95739.84;;;17.41;100.00
32933;BME280;19444;50.518;10.870;2023-08-30T12:01:49;95733.06;;;17.58;100.00
32933;BME280;19444;50.518;10.870;2023-08-30T12:04:50;95733.91;;;18.54;100.00
32933;BME280;19444;50.518;10.870;2023-08-30T12:07:47;95739.25;;;18.40;100.00
32933;BME280;19444;50.518;10.870;2023-08-30T12:10:45;95734.75;;;17.70;100.00
32933;BME280;19444;50.518;10.870;2023-08-30T12:13:42;95716.41;;;18.44;100.00
32933;BME280;19444;50.518;10.870;2023-08-30T12:16:40;95721.59;;;17.72;100.00
32933;BME280;19444;50.518;10.870;2023-08-30T12:19:38;95710.59;;;19.04;100.00
32933;BME280;19444;50.518;10.870;2023-08-30T12:22:40;95709.44;;;19.06;100.00
32933;BME280;19444;50.518;10.870;2023-08-30T12:25:37;95701.91;;;18.74;100.00
32933;BME280;19444;50.518;10.870;2023-08-30T12:28:39;95697.09;;;18.53;100.00
32933;BME280;19444;50.518;10.870;2023-08-30T12:31:36;95692.75;;;17.90;100.00
32933;BME280;19444;50.518;10.870;2023-08-30T12:34:34;95694.22;;;18.90;100.00
32933;BME280;19444;50.518;10.870;2023-08-30T12:37:32;95688.50;;;18.40;100.00
32933;BME280;19444;50.518;10.870;2023-08-30T12:40:29;95690.81;;;19.08;100.00
32933;BME280;19444;50.518;10.870;2023-08-30T12:43:26;95692.31;;;18.29;100.00
32933;BME280;19444;50.518;10.870;2023-08-30T12:46:23;95687.63;;;17.78;100.00
32933;BME280;19444;50.518;10.870;2023-08-30T12:49:19;95683.38;;;18.87;100.00
32933;BME280;19444;50.518;10.870;2023-08-30T12:52:17;95682.41;;;19.55;100.00
32933;BME280;19444;50.518;10.870;2023-08-30T12:55:14;95677.06;;;18.68;100.00
32933;BME280;19444;50.518;10.870;2023-08-30T12:58:12;95678.91;;;19.44;100.00
32933;BME280;19444;50.518;10.870;2023-08-30T13:01:10;95679.25;;;19.25;100.00
32933;BME280;19444;50.518;10.870;2023-08-30T13:04:07;95681.91;;;18.45;100.00
32933;BME280;19444;50.518;10.870;2023-08-30T13:07:05;95677.25;;;18.38;100.00
32933;BME280;19444;50.518;10.870;2023-08-30T13:10:02;95674.69;;;18.08;100.00
32933;BME280;19444;50.518;10.870;2023-08-30T13:12:59;95675.91;;;17.70;100.00
32933;BME280;19444;50.518;10.870;2023-08-30T13:15:56;95676.31;;;18.16;100.00
32933;BME280;19444;50.518;10.870;2023-08-30T13:18:53;95673.63;;;18.79;100.00
32933;BME280;19444;50.518;10.870;2023-08-30T13:21:50;95671.91;;;17.98;100.00
32933;BME280;19444;50.518;10.870;2023-08-30T13:24:47;95659.03;;;19.12;100.00
32933;BME280;19444;50.518;10.870;2023-08-30T13:27:44;95662.41;;;18.22;100.00
32933;BME280;19444;50.518;10.870;2023-08-30T13:30:47;95655.16;;;17.85;100.00
32933;BME280;19444;50.518;10.870;2023-08-30T13:33:46;95648.84;;;18.87;100.00
32933;BME280;19444;50.518;10.870;2023-08-30T13:36:43;95645.47;;;19.12;100.00
32933;BME280;19444;50.518;10.870;2023-08-30T13:39:40;95653.19;;;18.37;100.00
32933;BME280;19444;50.518;10.870;2023-08-30T13:42:37;95649.84;;;17.99;100.00
32933;BME280;19444;50.518;10.870;2023-08-30T13:45:34;95651.22;;;17.79;100.00
32933;BME280;19444;50.518;10.870;2023-08-30T13:48:31;95649.28;;;17.79;100.00
32933;BME280;19444;50.518;10.870;2023-08-30T13:51:28;95650.09;;;17.43;100.00
32933;BME280;19444;50.518;10.870;2023-08-30T13:54:26;95651.81;;;17.21;100.00
32933;BME280;19444;50.518;10.870;2023-08-30T13:57:23;95650.00;;;16.98;100.00
32933;BME280;19444;50.518;10.870;2023-08-30T14:00:20;95642.13;;;17.20;100.00
32933;BME280;19444;50.518;10.870;2023-08-30T14:03:17;95639.75;;;17.18;100.00
32933;BME280;19444;50.518;10.870;2023-08-30T14:06:14;95636.25;;;16.81;100.00
32933;BME280;19444;50.518;10.870;2023-08-30T14:09:11;95633.63;;;16.58;100.00
32933;BME280;19444;50.518;10.870;2023-08-30T14:12:09;95638.22;;;16.27;100.00
32933;BME280;19444;50.518;10.870;2023-08-30T14:15:07;95642.91;;;16.30;100.00
32933;BME280;19444;50.518;10.870;2023-08-30T14:18:04;95641.59;;;16.47;100.00
32933;BME280;19444;50.518;10.870;2023-08-30T14:21:01;95648.25;;;16.53;100.00
32933;BME280;19444;50.518;10.870;2023-08-30T14:23:58;95657.50;;;15.99;100.00
32933;BME280;19444;50.518;10.870;2023-08-30T14:26:55;95673.63;;;15.69;100.00
32933;BME280;19444;50.518;10.870;2023-08-30T14:29:53;95680.16;;;15.68;100.00
32933;BME280;19444;50.518;10.870;2023-08-30T14:32:51;95680.22;;;15.52;100.00
32933;BME280;19444;50.518;10.870;2023-08-30T14:35:48;95684.34;;;15.23;100.00
32933;BME280;19444;50.518;10.870;2023-08-30T14:38:45;95688.03;;;15.15;100.00
32933;BME280;19444;50.518;10.870;2023-08-30T14:41:41;95696.06;;;15.12;100.00
32933;BME280;19444;50.518;10.870;2023-08-30T14:44:40;95695.16;;;15.04;100.00
32933;BME280;19444;50.518;10.870;2023-08-30T14:47:37;95697.44;;;15.02;100.00
32933;BME280;19444;50.518;10.870;2023-08-30T14:50:34;95691.78;;;15.30;100.00
32933;BME280;19444;50.518;10.870;2023-08-30T14:53:31;95690.59;;;15.08;100.00
32933;BME280;19444;50.518;10.870;2023-08-30T14:56:28;95687.97;;;15.12;100.00
32933;BME280;19444;50.518;10.870;2023-08-30T14:59:25;95691.31;;;15.05;100.00
32933;BME280;19444;50.518;10.870;2023-08-30T15:02:23;95688.03;;;14.96;100.00
32933;BME280;19444;50.518;10.870;2023-08-30T15:05:20;95683.34;;;15.12;100.00
32933;BME280;19444;50.518;10.870;2023-08-30T15:08:16;95683.63;;;15.07;100.00
32933;BME280;19444;50.518;10.870;2023-08-30T15:11:13;95681.72;;;15.07;100.00
32933;BME280;19444;50.518;10.870;2023-08-30T15:14:11;95684.28;;;15.00;100.00
32933;BME280;19444;50.518;10.870;2023-08-30T15:17:13;95687.88;;;15.08;100.00
32933;BME280;19444;50.518;10.870;2023-08-30T15:20:12;95675.34;;;14.96;100.00
32933;BME280;19444;50.518;10.870;2023-08-30T15:23:13;95681.03;;;14.91;100.00
32933;BME280;19444;50.518;10.870;2023-08-30T15:26:14;95675.47;;;15.03;100.00
32933;BME280;19444;50.518;10.870;2023-08-30T15:29:13;95680.94;;;14.88;100.00